Aviation Digital Data Service (ADDS)

Output produced by METARs form (2147 UTC 16 February 2019)
found at http://www.aviationweather.gov/metar/data/
 
METAR text: BIIS 161700Z VRB05KT CAVOK M07/M10 Q1009
Conditions at: BIIS (ISAFJOROUR , IS) observed 1700 UTC 16 February 2019
Temperature: -7.0°C (19°F)
Dewpoint: -10.0°C (14°F) [RH = 79%]
Pressure (altimeter): 29.79 inches Hg (1009.0 mb)
Winds: variable direction winds at 6 MPH (5 knots; 2.6 m/s)
Visibility: 6 or more miles (10+ km)
Ceiling: ceiling and visibility are OK
Clouds: unknown
Weather: no significant weather observed at this time

METAR text: BIIS 161600Z VRB03KT CAVOK M08/M11 Q1010
Conditions at: BIIS (ISAFJOROUR , IS) observed 1600 UTC 16 February 2019
Temperature: -8.0°C (18°F)
Dewpoint: -11.0°C (12°F) [RH = 79%]
Pressure (altimeter): 29.82 inches Hg (1010.0 mb)
Winds: variable direction winds at 3 MPH (3 knots; 1.5 m/s)
Visibility: 6 or more miles (10+ km)
Ceiling: ceiling and visibility are OK
Clouds: unknown
Weather: no significant weather observed at this time

METAR text: BIIS 161500Z VRB03KT CAVOK M07/M11 Q1010
Conditions at: BIIS (ISAFJOROUR , IS) observed 1500 UTC 16 February 2019
Temperature: -7.0°C (19°F)
Dewpoint: -11.0°C (12°F) [RH = 73%]
Pressure (altimeter): 29.82 inches Hg (1010.0 mb)
Winds: variable direction winds at 3 MPH (3 knots; 1.5 m/s)
Visibility: 6 or more miles (10+ km)
Ceiling: ceiling and visibility are OK
Clouds: unknown
Weather: no significant weather observed at this time

METAR text: BIIS 161400Z VRB02KT CAVOK M08/M11 Q1010 R88/450295
Conditions at: BIIS (ISAFJOROUR , IS) observed 1400 UTC 16 February 2019
Temperature: -8.0°C (18°F)
Dewpoint: -11.0°C (12°F) [RH = 79%]
Pressure (altimeter): 29.82 inches Hg (1010.0 mb)
Winds: variable direction winds at 2 MPH (2 knots; 1.0 m/s)
Visibility: 6 or more miles (10+ km)
Ceiling: ceiling and visibility are OK
Clouds: unknown
Weather: no significant weather observed at this time

METAR text: BIIS 161324Z VRB02KT CAVOK M06/M10 Q1010 R88/450295
Conditions at: BIIS (ISAFJOROUR , IS) observed 1324 UTC 16 February 2019
Temperature: -6.0°C (21°F)
Dewpoint: -10.0°C (14°F) [RH = 73%]
Pressure (altimeter): 29.82 inches Hg (1010.0 mb)
Winds: variable direction winds at 2 MPH (2 knots; 1.0 m/s)
Visibility: 6 or more miles (10+ km)
Ceiling: ceiling and visibility are OK
Clouds: unknown
Weather: no significant weather observed at this time

METAR text: BIIS 161200Z 23004KT CAVOK M07/M11 Q1011 R88/450295
Conditions at: BIIS (ISAFJOROUR , IS) observed 1200 UTC 16 February 2019
Temperature: -7.0°C (19°F)
Dewpoint: -11.0°C (12°F) [RH = 73%]
Pressure (altimeter): 29.85 inches Hg (1011.0 mb)
Winds: from the SW (230 degrees) at 5 MPH (4 knots; 2.1 m/s)
Visibility: 6 or more miles (10+ km)
Ceiling: ceiling and visibility are OK
Clouds: unknown
Weather: no significant weather observed at this time

METAR text: BIIS 161100Z 00000KT CAVOK M07/M11 Q1011 R88/450295
Conditions at: BIIS (ISAFJOROUR , IS) observed 1100 UTC 16 February 2019
Temperature: -7.0°C (19°F)
Dewpoint: -11.0°C (12°F) [RH = 73%]
Pressure (altimeter): 29.85 inches Hg (1011.0 mb)
Winds: calm
Visibility: 6 or more miles (10+ km)
Ceiling: ceiling and visibility are OK
Clouds: unknown
Weather: no significant weather observed at this time

METAR text: BIIS 161000Z VRB02KT CAVOK M07/M11 Q1010 R88/450295
Conditions at: BIIS (ISAFJOROUR , IS) observed 1000 UTC 16 February 2019
Temperature: -7.0°C (19°F)
Dewpoint: -11.0°C (12°F) [RH = 73%]
Pressure (altimeter): 29.82 inches Hg (1010.0 mb)
Winds: variable direction winds at 2 MPH (2 knots; 1.0 m/s)
Visibility: 6 or more miles (10+ km)
Ceiling: ceiling and visibility are OK
Clouds: unknown
Weather: no significant weather observed at this time

METAR text: BIIS 160900Z VRB03KT CAVOK M07/M11 Q1010
Conditions at: BIIS (ISAFJOROUR , IS) observed 0900 UTC 16 February 2019
Temperature: -7.0°C (19°F)
Dewpoint: -11.0°C (12°F) [RH = 73%]
Pressure (altimeter): 29.82 inches Hg (1010.0 mb)
Winds: variable direction winds at 3 MPH (3 knots; 1.5 m/s)
Visibility: 6 or more miles (10+ km)
Ceiling: ceiling and visibility are OK
Clouds: unknown
Weather: no significant weather observed at this time

METAR text: BIIS 151800Z 21012KT 9999 VCSH SCT015 OVC020 M00/M03 Q1001
Conditions at: BIIS (ISAFJOROUR , IS) observed 1800 UTC 15 February 2019
Temperature: 0.0°C (32°F)
Dewpoint: -3.0°C (27°F) [RH = 80%]
Pressure (altimeter): 29.56 inches Hg (1001.0 mb)
Winds: from the SSW (210 degrees) at 14 MPH (12 knots; 6.2 m/s)
Visibility: 6 or more miles (10+ km)
Ceiling: 2000 feet AGL
Clouds: scattered clouds at 1500 feet AGL
overcast cloud deck at 2000 feet AGL
Weather: VCSH  (showers in vicinity)

METAR text: BIIS 151600Z 22012KT 4500 VCSH FEW006 SCT012 OVC020 M00/M03 Q0999
Conditions at: BIIS (ISAFJOROUR , IS) observed 1600 UTC 15 February 2019
Temperature: 0.0°C (32°F)
Dewpoint: -3.0°C (27°F) [RH = 80%]
Pressure (altimeter): 29.50 inches Hg (999.0 mb)
Winds: from the SW (220 degrees) at 14 MPH (12 knots; 6.2 m/s)
Visibility: 2.80 miles (4.51 km)
Ceiling: 2000 feet AGL
Clouds: few clouds at 600 feet AGL
scattered clouds at 1200 feet AGL
overcast cloud deck at 2000 feet AGL
Weather: VCSH  (showers in vicinity)

METAR text: BIIS 151500Z 20009KT 9999 VCSH FEW012 SCT020 BKN030 00/M04 Q0999
Conditions at: BIIS (ISAFJOROUR , IS) observed 1500 UTC 15 February 2019
Temperature: 0.0°C (32°F)
Dewpoint: -4.0°C (25°F) [RH = 74%]
Pressure (altimeter): 29.50 inches Hg (999.0 mb)
Winds: from the SSW (200 degrees) at 10 MPH (9 knots; 4.6 m/s)
Visibility: 6 or more miles (10+ km)
Ceiling: 3000 feet AGL
Clouds: few clouds at 1200 feet AGL
scattered clouds at 2000 feet AGL
broken clouds at 3000 feet AGL
Weather: VCSH  (showers in vicinity)

METAR text: BIIS 151400Z 22009KT 9999 VCSH SCT020 BKN035 M01/M04 Q0998
Conditions at: BIIS (ISAFJOROUR , IS) observed 1400 UTC 15 February 2019
Temperature: -1.0°C (30°F)
Dewpoint: -4.0°C (25°F) [RH = 80%]
Pressure (altimeter): 29.47 inches Hg (998.0 mb)
Winds: from the SW (220 degrees) at 10 MPH (9 knots; 4.6 m/s)
Visibility: 6 or more miles (10+ km)
Ceiling: 3500 feet AGL
Clouds: scattered clouds at 2000 feet AGL
broken clouds at 3500 feet AGL
Weather: VCSH  (showers in vicinity)

METAR text: BIIS 151300Z 19004KT CAVOK M04/M08 Q0998 R88/710095
Conditions at: BIIS (ISAFJOROUR , IS) observed 1300 UTC 15 February 2019
Temperature: -4.0°C (25°F)
Dewpoint: -8.0°C (18°F) [RH = 74%]
Pressure (altimeter): 29.47 inches Hg (998.0 mb)
Winds: from the S (190 degrees) at 5 MPH (4 knots; 2.1 m/s)
Visibility: 6 or more miles (10+ km)
Ceiling: ceiling and visibility are OK
Clouds: unknown
Weather: no significant weather observed at this time

METAR text: BIIS 151200Z 03002KT CAVOK M03/M06 Q0998 R88/710095
Conditions at: BIIS (ISAFJOROUR , IS) observed 1200 UTC 15 February 2019
Temperature: -3.0°C (27°F)
Dewpoint: -6.0°C (21°F) [RH = 80%]
Pressure (altimeter): 29.47 inches Hg (998.0 mb)
Winds: from the NNE (30 degrees) at 2 MPH (2 knots; 1.0 m/s)
Visibility: 6 or more miles (10+ km)
Ceiling: ceiling and visibility are OK
Clouds: unknown
Weather: no significant weather observed at this time

METAR text: BIIS 151100Z VRB03KT CAVOK M04/M07 Q0998
Conditions at: BIIS (ISAFJOROUR , IS) observed 1100 UTC 15 February 2019
Temperature: -4.0°C (25°F)
Dewpoint: -7.0°C (19°F) [RH = 80%]
Pressure (altimeter): 29.47 inches Hg (998.0 mb)
Winds: variable direction winds at 3 MPH (3 knots; 1.5 m/s)
Visibility: 6 or more miles (10+ km)
Ceiling: ceiling and visibility are OK
Clouds: unknown
Weather: no significant weather observed at this time

METAR text: BIIS 151000Z VRB03KT CAVOK M03/M06 Q0998 R88/CLRD//
Conditions at: BIIS (ISAFJOROUR , IS) observed 1000 UTC 15 February 2019
Temperature: -3.0°C (27°F)
Dewpoint: -6.0°C (21°F) [RH = 80%]
Pressure (altimeter): 29.47 inches Hg (998.0 mb)
Winds: variable direction winds at 3 MPH (3 knots; 1.5 m/s)
Visibility: 6 or more miles (10+ km)
Ceiling: ceiling and visibility are OK
Clouds: unknown
Weather: no significant weather observed at this time

Forecast for: BIIS (ISAFJOROUR , IS)
Text: TAF BIIS 161614Z 1617/1702 05008KT 9999 SCT045 BKN060
Forecast period: 1700 UTC 16 February 2019 to 0200 UTC 17 February 2019
Forecast type: FROM: standard forecast or significant change
Winds: from the NE (50 degrees) at 9 MPH (8 knots; 4.1 m/s)
Visibility: 6 or more miles 10+ km)
Ceiling: 6000 feet AGL
Clouds: scattered clouds at 4500 feet AGL
broken clouds at 6000 feet AGL
Weather: no significant weather forecast for this period
Text: BECMG 1617/1620 03015G25KT 9999 -SHSN BKN025
Forecast period: 1700 UTC 16 February 2019 to 0200 UTC 17 February 2019
Forecast type: BECOMING: Conditions expected to become as follows by 2000 UTC 16 February 2019
Winds: from the NNE (30 degrees) at 17 MPH (15 knots; 7.7 m/s)
gusting to 29 MPH (25 knots; 12.9 m/s)
Visibility: 6 or more miles 10+ km)
Ceiling: 2500 feet AGL
Clouds: broken clouds at 2500 feet AGL
Weather: -SHSN  (light snow showers)
Text: PROB40
Forecast period: 1800 UTC 16 February 2019 to 0200 UTC 17 February 2019
Forecast type: TEMPORARY: The following changes expected for less than half the time period
Winds: from the NNE (30 degrees) at 29 MPH (25 knots; 12.9 m/s)
gusting to 40 MPH (35 knots; 18.0 m/s)
Visibility: 1.86 miles (2.99 km)
Ceiling: 1000 feet AGL
Clouds: broken clouds at 1000 feet AGL
Weather: SHSN  (snow showers)